createdAt,value
2022-09-24T00:02:16.776Z,12.80
2022-09-24T00:05:02.001Z,12.74
2022-09-24T00:07:46.945Z,12.66
2022-09-24T00:10:31.750Z,12.63
2022-09-24T00:13:18.212Z,12.62
2022-09-24T00:16:06.227Z,12.61
2022-09-24T00:18:51.956Z,12.56
2022-09-24T00:21:38.791Z,12.61
2022-09-24T00:24:24.155Z,12.63
2022-09-24T00:27:09.302Z,12.61
2022-09-24T00:29:54.579Z,12.56
2022-09-24T00:32:39.427Z,12.51
2022-09-24T00:35:24.427Z,12.52
2022-09-24T00:38:09.850Z,12.53
2022-09-24T00:40:55.135Z,12.49
2022-09-24T00:43:40.028Z,12.55
2022-09-24T00:46:42.659Z,12.59
2022-09-24T00:49:28.010Z,12.61
2022-09-24T00:52:13.952Z,12.50
2022-09-24T00:54:59.516Z,12.50
2022-09-24T00:57:46.930Z,12.60
2022-09-24T01:00:33.214Z,12.61
2022-09-24T01:03:24.279Z,12.77
2022-09-24T01:06:09.963Z,12.64
2022-09-24T01:08:56.475Z,12.65
2022-09-24T01:12:00.497Z,12.72
2022-09-24T01:15:15.333Z,12.68
2022-09-24T01:18:07.262Z,12.52
2022-09-24T01:21:07.292Z,12.45
2022-09-24T01:24:06.928Z,12.63
2022-09-24T01:26:52.305Z,12.52
2022-09-24T01:29:49.469Z,12.59
2022-09-24T01:32:40.711Z,12.60
2022-09-24T01:35:25.654Z,12.48
2022-09-24T01:38:28.745Z,12.69
2022-09-24T01:41:16.853Z,12.71
2022-09-24T01:44:03.296Z,12.37
2022-09-24T01:46:49.121Z,12.58
2022-09-24T01:49:34.333Z,12.40
2022-09-24T01:52:25.858Z,12.38
2022-09-24T01:55:15.767Z,12.32
2022-09-24T01:58:08.470Z,12.41
2022-09-24T02:01:01.665Z,12.43
2022-09-24T02:03:53.278Z,12.57
2022-09-24T02:07:00.531Z,12.64
2022-09-24T02:09:45.722Z,12.42
2022-09-24T02:12:37.933Z,12.57
2022-09-24T02:15:32.515Z,12.50
2022-09-24T02:18:21.985Z,12.29
2022-09-24T02:21:12.454Z,12.30
2022-09-24T02:24:05.441Z,12.33
2022-09-24T02:26:50.759Z,12.28
2022-09-24T02:29:36.256Z,12.29
2022-09-24T02:32:24.792Z,12.30
2022-09-24T02:35:12.762Z,12.24
2022-09-24T02:37:57.894Z,12.36
2022-09-24T02:40:43.410Z,12.32
2022-09-24T02:43:28.295Z,12.36
2022-09-24T02:46:13.144Z,12.40
2022-09-24T02:48:58.680Z,12.48
2022-09-24T02:51:44.643Z,12.34
2022-09-24T02:54:30.132Z,12.41
2022-09-24T02:57:15.607Z,12.38
2022-09-24T03:00:00.932Z,12.44
2022-09-24T03:02:46.785Z,12.44
2022-09-24T03:05:32.102Z,12.32
2022-09-24T03:08:17.251Z,12.22
2022-09-24T03:11:02.460Z,12.05
2022-09-24T03:13:48.038Z,12.22
2022-09-24T03:16:33.676Z,12.13
2022-09-24T03:19:18.608Z,12.06
2022-09-24T03:22:03.653Z,12.04
2022-09-24T03:24:49.005Z,12.02
2022-09-24T03:27:34.166Z,12.28
2022-09-24T03:30:19.562Z,12.21
2022-09-24T03:33:04.670Z,12.26
2022-09-24T03:35:49.708Z,12.38
2022-09-24T03:38:36.893Z,12.27
2022-09-24T03:41:23.511Z,12.15
2022-09-24T03:44:09.087Z,12.13
2022-09-24T03:46:54.433Z,12.07
2022-09-24T03:49:39.816Z,12.27
2022-09-24T03:52:25.651Z,12.25
2022-09-24T03:55:10.545Z,12.40
2022-09-24T03:57:55.345Z,12.09
2022-09-24T04:00:41.193Z,12.11
2022-09-24T04:03:26.332Z,12.05
2022-09-24T04:06:11.401Z,12.03
2022-09-24T04:08:57.631Z,11.94
2022-09-24T04:11:42.528Z,11.81
2022-09-24T04:14:27.978Z,11.75
2022-09-24T04:17:12.967Z,11.70
2022-09-24T04:19:58.757Z,11.69
2022-09-24T04:22:44.438Z,11.62
2022-09-24T04:25:31.351Z,11.65
2022-09-24T04:28:16.519Z,11.67
2022-09-24T04:31:01.665Z,11.64
2022-09-24T04:33:46.985Z,11.61
2022-09-24T04:36:32.303Z,11.62
2022-09-24T04:39:17.636Z,11.68
2022-09-24T04:42:02.706Z,11.85
2022-09-24T04:44:48.840Z,11.85
2022-09-24T04:47:37.095Z,11.92
2022-09-24T04:50:23.996Z,11.89
2022-09-24T04:53:09.190Z,11.86
2022-09-24T04:55:54.224Z,11.66
2022-09-24T04:58:40.007Z,11.54
2022-09-24T05:01:25.379Z,11.53
2022-09-24T05:04:10.781Z,11.14
2022-09-24T05:06:55.755Z,11.11
2022-09-24T05:09:41.159Z,11.02
2022-09-24T05:12:26.608Z,11.16
2022-09-24T05:15:11.416Z,11.15
2022-09-24T05:17:57.312Z,11.00
2022-09-24T05:20:42.308Z,11.10
2022-09-24T05:23:27.687Z,11.16
2022-09-24T05:26:12.738Z,11.21
2022-09-24T05:28:58.060Z,11.34
2022-09-24T05:31:43.191Z,11.19
2022-09-24T05:34:28.399Z,11.33
2022-09-24T05:37:15.167Z,11.27
2022-09-24T05:40:00.644Z,11.17
2022-09-24T05:42:45.827Z,11.22
2022-09-24T05:45:32.236Z,11.19
2022-09-24T05:48:17.130Z,11.27
2022-09-24T05:51:02.501Z,11.50
2022-09-24T05:53:47.565Z,11.49
2022-09-24T05:56:32.998Z,11.66
2022-09-24T05:59:17.878Z,11.65
2022-09-24T06:02:02.865Z,11.54
2022-09-24T06:04:48.222Z,11.64
2022-09-24T06:07:33.632Z,11.57
2022-09-24T06:10:18.526Z,11.63
2022-09-24T06:13:04.325Z,11.63
2022-09-24T06:15:49.414Z,11.67
2022-09-24T06:18:35.697Z,11.69
2022-09-24T06:21:20.811Z,11.83
2022-09-24T06:24:06.074Z,11.72
2022-09-24T06:26:52.087Z,11.82
2022-09-24T06:29:36.962Z,11.83
2022-09-24T06:32:23.761Z,11.78
2022-09-24T06:35:08.986Z,11.94
2022-09-24T06:37:53.974Z,11.82
2022-09-24T06:40:39.480Z,11.84
2022-09-24T06:43:24.749Z,12.02
2022-09-24T06:46:10.043Z,11.99
2022-09-24T06:48:54.965Z,12.06
2022-09-24T06:51:39.917Z,11.98
2022-09-24T06:54:25.248Z,12.13
2022-09-24T06:57:10.536Z,12.20
2022-09-24T06:59:55.435Z,12.09
2022-09-24T07:02:41.097Z,12.24
2022-09-24T07:05:26.469Z,12.38
2022-09-24T07:08:11.735Z,12.21
2022-09-24T07:10:57.016Z,12.41
2022-09-24T07:13:41.770Z,12.47
2022-09-24T07:16:27.144Z,12.50
2022-09-24T07:19:12.520Z,12.59
2022-09-24T07:21:57.442Z,12.72
2022-09-24T07:24:42.501Z,12.74
2022-09-24T07:27:27.333Z,12.82
2022-09-24T07:30:13.109Z,12.99
2022-09-24T07:32:58.004Z,12.90
2022-09-24T07:35:42.916Z,12.79
2022-09-24T07:38:27.840Z,12.94
2022-09-24T07:41:12.885Z,13.02
2022-09-24T07:43:57.775Z,12.96
2022-09-24T07:46:42.695Z,13.14
2022-09-24T07:49:28.047Z,13.20
2022-09-24T07:52:12.756Z,13.39
2022-09-24T07:54:57.730Z,13.26
2022-09-24T07:57:47.373Z,13.31
2022-09-24T08:00:32.474Z,13.26
2022-09-24T08:03:17.642Z,13.19
2022-09-24T08:06:04.436Z,13.36
2022-09-24T08:08:50.324Z,13.23
2022-09-24T08:11:35.747Z,13.28
2022-09-24T08:14:21.055Z,13.36
2022-09-24T08:17:06.061Z,13.47
2022-09-24T08:19:51.276Z,13.34
2022-09-24T08:22:36.554Z,13.38
2022-09-24T08:25:22.038Z,13.39
2022-09-24T08:28:08.563Z,13.45
2022-09-24T08:31:06.953Z,13.53
2022-09-24T08:33:52.051Z,13.53
2022-09-24T08:36:42.090Z,13.61
2022-09-24T08:39:28.156Z,13.65
2022-09-24T08:42:36.232Z,13.76
2022-09-24T08:45:21.293Z,13.83
2022-09-24T08:48:16.036Z,13.72
2022-09-24T08:51:05.098Z,13.68
2022-09-24T08:53:58.226Z,13.64
2022-09-24T08:56:46.188Z,13.59
2022-09-24T08:59:35.171Z,13.62
2022-09-24T09:02:47.699Z,13.54
2022-09-24T09:05:59.090Z,13.52
2022-09-24T09:09:11.848Z,13.57
2022-09-24T09:12:01.699Z,13.54
2022-09-24T09:14:57.579Z,13.49
2022-09-24T09:17:55.029Z,13.34
2022-09-24T09:20:45.973Z,13.31
2022-09-24T09:23:59.404Z,13.38
2022-09-24T09:26:50.512Z,13.51
2022-09-24T09:29:36.397Z,13.60
2022-09-24T09:32:24.504Z,13.52
2022-09-24T09:35:24.029Z,13.62
2022-09-24T09:38:38.251Z,13.66
2022-09-24T09:41:35.731Z,13.62
2022-09-24T09:44:27.744Z,13.54
2022-09-24T09:47:18.357Z,13.63
2022-09-24T09:50:14.297Z,13.68
2022-09-24T09:52:59.920Z,13.62
2022-09-24T09:55:52.296Z,13.73
2022-09-24T09:58:45.975Z,13.72
2022-09-24T10:01:32.882Z,13.84
2022-09-24T10:04:33.146Z,13.82
2022-09-24T10:07:17.992Z,13.83
2022-09-24T10:10:18.745Z,13.90
2022-09-24T10:13:12.834Z,13.93
2022-09-24T10:16:10.074Z,13.99
2022-09-24T10:18:55.507Z,13.96
2022-09-24T10:21:40.976Z,14.04
2022-09-24T10:24:27.872Z,14.24
2022-09-24T10:27:21.657Z,14.40
2022-09-24T10:30:16.539Z,14.53
2022-09-24T10:33:04.450Z,14.65
2022-09-24T10:35:49.973Z,14.71
2022-09-24T10:38:35.008Z,14.70
2022-09-24T10:41:27.587Z,14.79
2022-09-24T10:44:12.616Z,14.70
2022-09-24T10:47:16.707Z,14.90
2022-09-24T10:50:16.933Z,15.02
2022-09-24T10:53:14.374Z,15.12
2022-09-24T10:56:05.778Z,15.16
2022-09-24T10:59:23.304Z,15.21
2022-09-24T11:02:20.679Z,15.25
2022-09-24T11:05:12.630Z,15.20
2022-09-24T11:08:17.833Z,15.26
2022-09-24T11:11:03.230Z,15.47
2022-09-24T11:13:57.288Z,15.31
2022-09-24T11:17:17.567Z,15.47
2022-09-24T11:20:14.556Z,15.53
2022-09-24T11:23:24.839Z,15.53
2022-09-24T11:26:28.757Z,15.45
2022-09-24T11:29:36.980Z,15.43
2022-09-24T11:32:36.942Z,15.52
2022-09-24T11:35:40.856Z,15.39
2022-09-24T11:38:44.121Z,15.41
2022-09-24T11:41:39.261Z,15.46
2022-09-24T11:44:49.196Z,15.37
2022-09-24T11:48:10.005Z,15.20
2022-09-24T11:51:26.009Z,15.33
2022-09-24T11:54:19.070Z,15.14
2022-09-24T11:57:16.095Z,15.20
2022-09-24T12:00:14.921Z,15.16
2022-09-24T12:03:10.790Z,15.14
2022-09-24T12:06:22.170Z,15.14
2022-09-24T12:09:21.163Z,15.19
2022-09-24T12:12:39.724Z,15.10
2022-09-24T12:15:30.544Z,15.33
2022-09-24T12:18:21.251Z,15.27
2022-09-24T12:21:11.556Z,15.42
2022-09-24T12:24:03.374Z,15.47
2022-09-24T12:26:50.957Z,15.56
2022-09-24T12:30:00.161Z,15.80
2022-09-24T12:33:03.963Z,15.80
2022-09-24T12:36:10.793Z,15.82
2022-09-24T12:39:04.166Z,15.87
2022-09-24T12:41:57.399Z,15.76
2022-09-24T12:44:54.831Z,15.71
2022-09-24T12:47:51.897Z,15.68
2022-09-24T12:50:37.761Z,15.51
2022-09-24T12:53:23.731Z,15.63
2022-09-24T12:56:10.462Z,15.57
2022-09-24T12:58:56.435Z,15.59
2022-09-24T13:01:41.325Z,15.52
2022-09-24T13:04:28.678Z,15.56
2022-09-24T13:07:40.362Z,15.59
2022-09-24T13:10:31.981Z,15.46
2022-09-24T13:13:30.118Z,15.40
2022-09-24T13:16:20.524Z,15.12
2022-09-24T13:19:22.172Z,15.17
2022-09-24T13:22:21.909Z,15.25
2022-09-24T13:25:07.113Z,15.25
2022-09-24T13:28:17.876Z,15.11
2022-09-24T13:31:14.454Z,14.97
2022-09-24T13:34:12.385Z,14.93
2022-09-24T13:37:18.865Z,14.87
2022-09-24T13:40:19.401Z,14.97
2022-09-24T13:43:15.985Z,15.07
2022-09-24T13:46:04.912Z,15.09
2022-09-24T13:48:57.064Z,15.07
2022-09-24T13:51:51.647Z,15.04
2022-09-24T13:54:48.228Z,15.20
2022-09-24T13:57:43.908Z,15.19
2022-09-24T14:00:30.388Z,15.24
2022-09-24T14:03:26.485Z,15.36
2022-09-24T14:06:14.999Z,15.33
2022-09-24T14:09:00.357Z,15.41
2022-09-24T14:11:50.827Z,15.32
2022-09-24T14:14:35.966Z,15.11
2022-09-24T14:17:21.331Z,15.13
2022-09-24T14:20:08.777Z,15.20
2022-09-24T14:22:53.939Z,15.45
2022-09-24T14:25:39.297Z,15.40
2022-09-24T14:28:25.394Z,15.47
2022-09-24T14:31:10.574Z,15.51
2022-09-24T14:33:56.335Z,15.55
2022-09-24T14:36:41.701Z,15.53
2022-09-24T14:39:29.318Z,15.56
2022-09-24T14:42:46.518Z,15.54
2022-09-24T14:45:35.294Z,15.65
2022-09-24T14:48:34.760Z,15.73
2022-09-24T14:51:30.436Z,15.65
2022-09-24T14:54:25.883Z,15.59
2022-09-24T14:57:10.687Z,15.66
2022-09-24T14:59:55.757Z,15.76
2022-09-24T15:02:41.074Z,15.68
2022-09-24T15:05:28.036Z,15.57
2022-09-24T15:08:27.367Z,15.16
2022-09-24T15:11:17.426Z,15.11
2022-09-24T15:14:12.104Z,14.97
2022-09-24T15:17:09.148Z,14.82
2022-09-24T15:19:54.542Z,14.83
2022-09-24T15:22:39.676Z,14.93
2022-09-24T15:25:25.093Z,14.84
2022-09-24T15:28:14.210Z,14.62
2022-09-24T15:30:59.601Z,14.77
2022-09-24T15:33:45.055Z,14.72
2022-09-24T15:36:30.386Z,14.78
2022-09-24T15:39:17.296Z,14.82
2022-09-24T15:42:02.416Z,14.82
2022-09-24T15:44:47.832Z,14.70
2022-09-24T15:47:32.949Z,14.74
2022-09-24T15:50:20.513Z,14.58
2022-09-24T15:53:06.811Z,14.56
2022-09-24T15:55:58.098Z,14.74
2022-09-24T15:58:43.174Z,14.79
2022-09-24T16:01:28.363Z,14.71
2022-09-24T16:04:14.021Z,14.80
2022-09-24T16:06:59.118Z,14.82
2022-09-24T16:09:44.705Z,14.87
2022-09-24T16:12:29.681Z,14.87
2022-09-24T16:15:16.144Z,14.90
2022-09-24T16:18:01.052Z,14.86
2022-09-24T16:20:45.895Z,14.70
2022-09-24T16:23:30.983Z,14.71
2022-09-24T16:26:15.879Z,14.78
2022-09-24T16:29:05.757Z,14.77
2022-09-24T16:31:50.954Z,14.72
2022-09-24T16:34:36.034Z,14.69
2022-09-24T16:37:21.218Z,14.66
2022-09-24T16:40:07.416Z,14.75
2022-09-24T16:42:52.489Z,14.75
2022-09-24T16:45:37.400Z,14.62
2022-09-24T16:48:22.419Z,14.58
2022-09-24T16:51:10.598Z,14.55
2022-09-24T16:53:56.317Z,14.54
2022-09-24T16:56:41.707Z,14.60
2022-09-24T16:59:27.358Z,14.62
2022-09-24T17:02:12.487Z,14.54
2022-09-24T17:04:59.792Z,14.50
2022-09-24T17:07:46.716Z,14.47
2022-09-24T17:10:31.742Z,14.40
2022-09-24T17:13:17.012Z,14.25
2022-09-24T17:16:02.804Z,14.16
2022-09-24T17:18:48.347Z,14.09
2022-09-24T17:21:35.053Z,13.94
2022-09-24T17:24:22.114Z,13.92
2022-09-24T17:27:07.937Z,13.82
2022-09-24T17:29:53.471Z,13.68
2022-09-24T17:32:38.724Z,13.58
2022-09-24T17:35:23.902Z,13.51
2022-09-24T17:38:09.311Z,13.47
2022-09-24T17:40:59.164Z,13.38
2022-09-24T17:43:44.943Z,13.31
2022-09-24T17:46:31.978Z,13.34
2022-09-24T17:49:17.342Z,13.24
2022-09-24T17:52:03.157Z,13.24
2022-09-24T17:54:48.059Z,13.16
2022-09-24T17:57:33.029Z,13.14
2022-09-24T18:00:18.427Z,13.19
2022-09-24T18:03:03.489Z,13.10
2022-09-24T18:05:48.897Z,13.11
2022-09-24T18:08:40.452Z,13.12
2022-09-24T18:11:28.577Z,13.20
2022-09-24T18:14:16.519Z,13.30
2022-09-24T18:17:01.627Z,13.28
2022-09-24T18:19:46.460Z,13.18
2022-09-24T18:22:32.631Z,13.21
2022-09-24T18:25:17.919Z,13.33
2022-09-24T18:28:03.467Z,13.27
2022-09-24T18:30:48.835Z,13.27
2022-09-24T18:33:35.564Z,13.32
2022-09-24T18:36:22.566Z,13.35
2022-09-24T18:39:10.165Z,13.40
2022-09-24T18:41:55.079Z,13.45
2022-09-24T18:44:40.636Z,13.44
2022-09-24T18:47:25.696Z,13.42
2022-09-24T18:50:10.949Z,13.43
2022-09-24T18:52:56.166Z,13.48
2022-09-24T18:55:43.151Z,13.52
2022-09-24T18:58:28.709Z,13.49
2022-09-24T19:01:14.362Z,13.48
2022-09-24T19:04:00.448Z,13.44
2022-09-24T19:06:47.049Z,13.54
2022-09-24T19:09:32.525Z,13.58
2022-09-24T19:12:17.781Z,13.62
2022-09-24T19:15:03.469Z,13.60
2022-09-24T19:17:48.884Z,13.63
2022-09-24T19:20:42.856Z,13.63
2022-09-24T19:23:28.297Z,13.62
2022-09-24T19:26:20.205Z,13.60
2022-09-24T19:29:05.611Z,13.54
2022-09-24T19:31:50.718Z,13.42
2022-09-24T19:34:36.282Z,13.44
2022-09-24T19:37:21.274Z,13.44
2022-09-24T19:40:07.255Z,13.41
2022-09-24T19:42:52.410Z,13.46
2022-09-24T19:45:37.289Z,13.41
2022-09-24T19:48:22.721Z,13.47
2022-09-24T19:51:12.155Z,13.43
2022-09-24T19:54:03.503Z,13.49
2022-09-24T19:56:48.802Z,13.49
2022-09-24T19:59:33.749Z,13.44
2022-09-24T20:02:19.343Z,13.47
2022-09-24T20:05:05.196Z,13.48
2022-09-24T20:07:50.473Z,13.47
2022-09-24T20:10:36.267Z,13.49
2022-09-24T20:13:21.484Z,13.63
2022-09-24T20:16:06.832Z,13.42
2022-09-24T20:18:54.604Z,13.39
2022-09-24T20:21:40.061Z,13.38
2022-09-24T20:24:25.505Z,13.39
2022-09-24T20:27:12.320Z,13.27
2022-09-24T20:29:57.427Z,13.28
2022-09-24T20:32:42.429Z,13.30
2022-09-24T20:35:27.672Z,13.33
2022-09-24T20:38:12.574Z,13.33
2022-09-24T20:40:57.910Z,13.39
2022-09-24T20:43:43.780Z,13.38
2022-09-24T20:46:29.161Z,13.40
2022-09-24T20:49:18.818Z,13.34
2022-09-24T20:52:03.628Z,13.27
2022-09-24T20:54:49.058Z,13.20
2022-09-24T20:57:33.869Z,13.13
2022-09-24T21:00:18.987Z,13.07
2022-09-24T21:03:20.081Z,13.06
2022-09-24T21:06:11.125Z,13.04
2022-09-24T21:08:57.166Z,13.05
2022-09-24T21:11:42.340Z,13.01
2022-09-24T21:14:27.596Z,12.89
2022-09-24T21:17:13.301Z,12.86
2022-09-24T21:19:58.595Z,12.94
2022-09-24T21:22:43.735Z,13.12
2022-09-24T21:25:52.931Z,13.05
2022-09-24T21:28:33.647Z,13.14
2022-09-24T21:31:21.674Z,13.02
2022-09-24T21:34:07.628Z,12.93
2022-09-24T21:36:52.688Z,12.88
2022-09-24T21:39:37.659Z,12.83
2022-09-24T21:42:22.515Z,12.86
2022-09-24T21:45:08.125Z,12.90
2022-09-24T21:47:53.278Z,12.95
2022-09-24T21:50:40.431Z,12.86
2022-09-24T21:53:25.868Z,12.81
2022-09-24T21:56:10.911Z,12.68
2022-09-24T21:58:56.291Z,12.68
2022-09-24T22:01:41.343Z,12.66
2022-09-24T22:04:27.152Z,12.55
2022-09-24T22:07:12.121Z,12.57
2022-09-24T22:09:57.210Z,12.60
2022-09-24T22:12:42.421Z,12.59
2022-09-24T22:15:27.341Z,12.59
2022-09-24T22:18:12.955Z,12.54
2022-09-24T22:20:58.231Z,12.67
2022-09-24T22:23:43.198Z,12.73
2022-09-24T22:26:28.741Z,12.53
2022-09-24T22:29:13.955Z,12.46
2022-09-24T22:31:59.177Z,12.55
2022-09-24T22:34:43.862Z,12.55
2022-09-24T22:37:28.823Z,12.48
2022-09-24T22:40:14.402Z,12.51
2022-09-24T22:42:59.845Z,12.50
2022-09-24T22:45:44.766Z,12.55
2022-09-24T22:48:30.457Z,12.54
2022-09-24T22:51:15.303Z,12.59
2022-09-24T22:54:00.079Z,12.44
2022-09-24T22:56:45.153Z,12.41
2022-09-24T22:59:30.759Z,12.41
2022-09-24T23:02:15.906Z,12.55
2022-09-24T23:05:01.523Z,12.57
2022-09-24T23:07:46.824Z,12.56
2022-09-24T23:10:31.995Z,12.57
2022-09-24T23:13:16.811Z,12.60
2022-09-24T23:16:16.537Z,12.59
2022-09-24T23:19:05.060Z,12.44
2022-09-24T23:21:50.068Z,12.43
2022-09-24T23:24:35.165Z,12.49
2022-09-24T23:27:20.503Z,12.52
2022-09-24T23:30:06.209Z,12.57
2022-09-24T23:32:51.504Z,12.62
2022-09-24T23:35:36.402Z,12.60
2022-09-24T23:38:21.707Z,12.53
2022-09-24T23:41:08.264Z,12.42
2022-09-24T23:43:53.848Z,12.43
2022-09-24T23:46:39.051Z,12.39
2022-09-24T23:49:23.942Z,12.48
2022-09-24T23:52:08.869Z,12.43
2022-09-24T23:54:53.657Z,12.31
2022-09-24T23:57:38.378Z,12.37
